createdAt,value
2022-08-02T00:00:45.335Z,44.13
2022-08-02T00:01:44.380Z,53.16
2022-08-02T00:02:44.318Z,51.89
2022-08-02T00:03:44.331Z,45.00
2022-08-02T00:04:44.303Z,49.67
2022-08-02T00:05:44.288Z,54.08
2022-08-02T00:06:45.280Z,45.91
2022-08-02T00:07:44.280Z,49.51
2022-08-02T00:08:44.299Z,36.74
2022-08-02T00:09:44.279Z,43.62
2022-08-02T00:10:44.252Z,57.25
2022-08-02T00:11:44.245Z,58.32
2022-08-02T00:12:44.240Z,51.96
2022-08-02T00:13:44.261Z,55.76
2022-08-02T00:14:44.225Z,55.71
2022-08-02T00:15:44.220Z,50.28
2022-08-02T00:16:44.206Z,55.37
2022-08-02T00:17:44.215Z,52.62
2022-08-02T00:18:44.218Z,47.32
2022-08-02T00:19:44.185Z,43.15
2022-08-02T00:20:44.184Z,50.77
2022-08-02T00:21:44.178Z,50.04
2022-08-02T00:22:44.173Z,46.04
2022-08-02T00:24:06.860Z,50.11
2022-08-02T00:24:45.148Z,51.66
2022-08-02T00:25:55.083Z,37.40
2022-08-02T00:26:45.135Z,44.81
2022-08-02T00:27:44.126Z,50.21
2022-08-02T00:28:44.161Z,45.24
2022-08-02T00:29:52.498Z,36.35
2022-08-02T00:30:45.105Z,36.69
2022-08-02T00:31:44.099Z,46.12
2022-08-02T00:32:44.086Z,54.32
2022-08-02T00:34:28.016Z,52.57
2022-08-02T00:34:45.071Z,50.62
2022-08-02T00:35:44.064Z,46.99
2022-08-02T00:36:44.059Z,58.25
2022-08-02T00:37:44.048Z,54.80
2022-08-02T00:38:44.065Z,46.64
2022-08-02T00:39:44.051Z,52.80
2022-08-02T00:40:44.019Z,35.76
2022-08-02T00:41:44.032Z,43.84
2022-08-02T00:42:44.002Z,43.71
2022-08-02T00:43:44.026Z,50.65
2022-08-02T00:44:43.992Z,44.17
2022-08-02T00:46:02.719Z,53.02
2022-08-02T00:46:44.974Z,46.95
2022-08-02T00:47:43.966Z,51.76
2022-08-02T00:48:43.998Z,37.06
2022-08-02T00:49:43.949Z,46.78
2022-08-02T00:50:43.944Z,53.48
2022-08-02T00:51:43.933Z,54.28
2022-08-02T00:52:43.922Z,40.68
2022-08-02T00:53:43.944Z,44.75
2022-08-02T00:54:43.909Z,51.60
2022-08-02T00:55:43.902Z,53.03
2022-08-02T00:56:50.125Z,58.54
2022-08-02T00:57:44.887Z,48.79
2022-08-02T00:58:43.909Z,53.57
2022-08-02T00:59:43.872Z,50.89
2022-08-02T01:00:43.863Z,51.03
2022-08-02T01:01:57.628Z,59.75
2022-08-02T01:02:44.851Z,60.59
2022-08-02T01:03:43.872Z,59.34
2022-08-02T01:04:43.838Z,60.88
2022-08-02T01:05:55.804Z,49.52
2022-08-02T01:06:45.816Z,49.09
2022-08-02T01:07:43.815Z,49.88
2022-08-02T01:08:44.495Z,54.59
2022-08-02T01:09:43.820Z,49.62
2022-08-02T01:10:43.787Z,60.76
2022-08-02T01:11:43.783Z,53.00
2022-08-02T01:12:43.773Z,59.30
2022-08-02T01:13:43.793Z,55.61
2022-08-02T01:14:43.758Z,59.53
2022-08-02T01:15:43.752Z,52.69
2022-08-02T01:16:43.743Z,55.90
2022-08-02T01:17:43.737Z,48.15
2022-08-02T01:18:43.737Z,51.75
2022-08-02T01:19:43.745Z,51.85
2022-08-02T01:20:43.711Z,49.70
2022-08-02T01:21:43.709Z,59.07
2022-08-02T01:23:01.429Z,52.48
2022-08-02T01:23:45.688Z,56.98
2022-08-02T01:24:43.703Z,54.55
2022-08-02T01:25:43.674Z,57.23
2022-08-02T01:26:43.669Z,53.73
2022-08-02T01:27:43.663Z,52.50
2022-08-02T01:28:43.654Z,56.32
2022-08-02T01:29:43.702Z,56.89
2022-08-02T01:30:43.639Z,46.86
2022-08-02T01:31:43.646Z,52.66
2022-08-02T01:32:43.628Z,55.44
2022-08-02T01:33:43.615Z,52.53
2022-08-02T01:34:43.636Z,51.41
2022-08-02T01:35:51.104Z,55.45
2022-08-02T01:36:44.673Z,60.72
2022-08-02T01:37:43.588Z,43.99
2022-08-02T01:38:43.584Z,53.87
2022-08-02T01:39:43.596Z,61.73
2022-08-02T01:40:43.569Z,53.18
2022-08-02T01:41:43.562Z,52.52
2022-08-02T01:42:43.549Z,42.69
2022-08-02T01:43:43.546Z,48.49
2022-08-02T01:44:43.558Z,42.84
2022-08-02T01:45:43.529Z,39.80
2022-08-02T01:46:43.519Z,41.13
2022-08-02T01:47:43.510Z,40.80
2022-08-02T01:48:43.505Z,53.77
2022-08-02T01:49:43.578Z,52.57
2022-08-02T01:50:43.488Z,49.62
2022-08-02T01:51:43.478Z,49.50
2022-08-02T01:52:53.155Z,45.65
2022-08-02T01:53:44.459Z,51.23
2022-08-02T01:54:43.480Z,56.06
2022-08-02T01:55:57.783Z,43.51
2022-08-02T01:56:44.429Z,47.87
2022-08-02T01:57:43.426Z,56.99
2022-08-02T01:58:43.419Z,44.59
2022-08-02T01:59:43.439Z,52.87
2022-08-02T02:00:43.406Z,54.71
2022-08-02T02:01:43.448Z,59.16
2022-08-02T02:02:43.391Z,46.98
2022-08-02T02:03:43.394Z,50.14
2022-08-02T02:04:43.402Z,53.24
2022-08-02T02:05:43.371Z,42.77
2022-08-02T02:06:43.358Z,46.64
2022-08-02T02:07:43.358Z,48.46
2022-08-02T02:08:43.341Z,50.31
2022-08-02T02:09:50.239Z,53.42
2022-08-02T02:10:44.324Z,49.86
2022-08-02T02:12:05.311Z,44.84
2022-08-02T02:12:44.320Z,50.65
2022-08-02T02:13:43.301Z,45.75
2022-08-02T02:14:51.818Z,48.43
2022-08-02T02:15:44.289Z,58.03
2022-08-02T02:16:43.282Z,49.87
2022-08-02T02:17:52.770Z,54.53
2022-08-02T02:18:44.263Z,49.78
2022-08-02T02:19:43.283Z,52.48
2022-08-02T02:20:43.254Z,51.32
2022-08-02T02:21:43.289Z,54.95
2022-08-02T02:22:43.229Z,57.68
2022-08-02T02:23:44.224Z,57.50
2022-08-02T02:24:43.235Z,58.13
2022-08-02T02:25:46.807Z,53.46
2022-08-02T02:26:51.908Z,57.24
2022-08-02T02:27:44.424Z,60.45
2022-08-02T02:28:43.186Z,61.84
2022-08-02T02:29:43.202Z,56.79
2022-08-02T02:30:43.171Z,56.73
2022-08-02T02:31:43.161Z,58.44
2022-08-02T02:32:43.152Z,52.12
2022-08-02T02:33:43.144Z,57.54
2022-08-02T02:34:43.149Z,50.95
2022-08-02T02:35:43.154Z,63.75
2022-08-02T02:36:43.123Z,61.87
2022-08-02T02:37:43.113Z,62.51
2022-08-02T02:38:43.107Z,53.95
2022-08-02T02:39:43.094Z,57.22
2022-08-02T02:40:43.117Z,52.59
2022-08-02T02:41:43.084Z,53.66
2022-08-02T02:42:43.078Z,48.79
2022-08-02T02:43:44.067Z,49.14
2022-08-02T02:44:43.059Z,61.42
2022-08-02T02:45:43.085Z,54.96
2022-08-02T02:46:43.046Z,53.74
2022-08-02T02:47:43.035Z,56.22
2022-08-02T02:48:43.028Z,60.50
2022-08-02T02:49:43.026Z,59.86
2022-08-02T02:50:43.037Z,57.08
2022-08-02T02:51:43.007Z,52.55
2022-08-02T02:52:42.996Z,60.51
2022-08-02T02:54:32.580Z,57.36
2022-08-02T02:54:43.982Z,57.16
2022-08-02T02:56:01.885Z,58.98
2022-08-02T02:56:43.963Z,53.27
2022-08-02T02:57:42.964Z,56.43
2022-08-02T02:58:42.960Z,55.83
2022-08-02T02:59:49.519Z,48.40
2022-08-02T03:00:43.981Z,51.14
2022-08-02T03:01:55.473Z,46.48
2022-08-02T03:02:43.918Z,50.76
2022-08-02T03:03:42.917Z,42.46
2022-08-02T03:04:57.444Z,57.07
2022-08-02T03:05:43.923Z,59.32
2022-08-02T03:06:42.893Z,57.48
2022-08-02T03:07:42.886Z,55.19
2022-08-02T03:08:42.884Z,56.08
2022-08-02T03:09:42.876Z,58.05
2022-08-02T03:10:42.887Z,56.40
2022-08-02T03:11:42.863Z,55.05
2022-08-02T03:12:42.852Z,57.57
2022-08-02T03:13:42.840Z,53.43
2022-08-02T03:14:42.842Z,55.37
2022-08-02T03:15:42.858Z,54.29
2022-08-02T03:16:42.825Z,61.35
2022-08-02T03:17:42.818Z,62.04
2022-08-02T03:18:42.807Z,61.68
2022-08-02T03:19:42.798Z,60.04
2022-08-02T03:20:42.815Z,59.84
2022-08-02T03:21:42.787Z,59.40
2022-08-02T03:22:42.778Z,61.42
2022-08-02T03:23:42.782Z,61.37
2022-08-02T03:24:42.785Z,57.48
2022-08-02T03:25:42.749Z,59.44
2022-08-02T03:26:42.745Z,61.90
2022-08-02T03:27:42.756Z,58.93
2022-08-02T03:28:42.721Z,59.50
2022-08-02T03:29:42.883Z,59.06
2022-08-02T03:30:43.706Z,58.92
2022-08-02T03:31:42.727Z,58.06
2022-08-02T03:32:42.695Z,58.86
2022-08-02T03:33:42.685Z,59.96
2022-08-02T03:34:42.721Z,55.44
2022-08-02T03:35:42.666Z,58.14
2022-08-02T03:36:42.684Z,54.04
2022-08-02T03:37:42.652Z,54.43
2022-08-02T03:38:42.646Z,57.14
2022-08-02T03:39:52.955Z,58.17
2022-08-02T03:40:43.657Z,58.28
2022-08-02T03:41:42.623Z,57.76
2022-08-02T03:42:42.611Z,59.39
2022-08-02T03:43:42.607Z,59.31
2022-08-02T03:44:42.619Z,57.43
2022-08-02T03:45:42.596Z,57.77
2022-08-02T03:46:42.581Z,56.88
2022-08-02T03:47:42.577Z,51.76
2022-08-02T03:48:42.565Z,60.61
2022-08-02T03:49:42.590Z,61.30
2022-08-02T03:50:42.546Z,62.35
2022-08-02T03:51:42.547Z,55.08
2022-08-02T03:52:42.542Z,60.86
2022-08-02T03:53:42.528Z,54.18
2022-08-02T03:54:45.395Z,58.81
2022-08-02T03:55:42.523Z,58.84
2022-08-02T03:56:42.501Z,56.63
2022-08-02T03:57:42.503Z,57.04
2022-08-02T03:58:45.835Z,57.61
2022-08-02T03:59:44.518Z,56.35
2022-08-02T04:00:42.510Z,48.58
2022-08-02T04:01:42.471Z,54.60
2022-08-02T04:02:42.461Z,58.39
2022-08-02T04:03:42.458Z,55.24
2022-08-02T04:04:42.471Z,53.85
2022-08-02T04:06:03.542Z,58.79
2022-08-02T04:06:43.448Z,53.70
2022-08-02T04:08:33.741Z,64.82
2022-08-02T04:08:43.413Z,66.48
2022-08-02T04:09:42.437Z,72.18
2022-08-02T04:10:42.402Z,57.38
2022-08-02T04:11:42.446Z,69.78
2022-08-02T04:12:42.390Z,57.17
2022-08-02T04:13:42.380Z,62.89
2022-08-02T04:14:42.397Z,61.96
2022-08-02T04:15:42.366Z,58.86
2022-08-02T04:16:42.360Z,60.71
2022-08-02T04:17:42.351Z,60.68
2022-08-02T04:18:42.342Z,60.97
2022-08-02T04:19:42.367Z,59.43
2022-08-02T04:20:42.330Z,61.37
2022-08-02T04:21:51.633Z,62.46
2022-08-02T04:22:43.314Z,57.80
2022-08-02T04:23:42.300Z,58.27
2022-08-02T04:24:42.321Z,62.40
2022-08-02T04:25:42.293Z,58.37
2022-08-02T04:26:42.282Z,59.38
2022-08-02T04:27:51.078Z,61.10
2022-08-02T04:28:43.265Z,59.49
2022-08-02T04:29:46.772Z,58.51
2022-08-02T04:30:43.249Z,61.63
2022-08-02T04:31:42.245Z,61.98
2022-08-02T04:32:42.230Z,59.58
2022-08-02T04:33:42.221Z,56.86
2022-08-02T04:34:47.395Z,59.43
2022-08-02T04:35:43.208Z,57.78
2022-08-02T04:36:42.197Z,60.50
2022-08-02T04:38:09.963Z,58.75
2022-08-02T04:38:43.188Z,60.74
2022-08-02T04:39:42.208Z,59.41
2022-08-02T04:40:42.173Z,62.62
2022-08-02T04:41:43.779Z,56.35
2022-08-02T04:42:42.158Z,59.06
2022-08-02T04:43:42.148Z,59.83
2022-08-02T04:44:42.139Z,58.61
2022-08-02T04:45:42.157Z,53.57
2022-08-02T04:46:42.124Z,60.58
2022-08-02T04:48:03.680Z,61.53
2022-08-02T04:48:44.111Z,62.26
2022-08-02T04:49:42.126Z,57.53
2022-08-02T04:50:42.116Z,59.15
2022-08-02T04:51:42.091Z,59.76
2022-08-02T04:52:45.762Z,60.08
2022-08-02T04:53:43.071Z,59.13
2022-08-02T04:54:42.070Z,56.69
2022-08-02T04:55:42.085Z,60.89
2022-08-02T04:56:42.050Z,56.66
2022-08-02T04:57:52.490Z,55.44
2022-08-02T04:58:43.036Z,56.73
2022-08-02T04:59:42.033Z,59.40
2022-08-02T05:00:42.091Z,58.18
2022-08-02T05:01:42.003Z,51.54
2022-08-02T05:02:41.999Z,59.50
2022-08-02T05:03:41.997Z,59.68
2022-08-02T05:04:41.985Z,52.99
2022-08-02T05:05:42.017Z,59.75
2022-08-02T05:06:41.960Z,63.63
2022-08-02T05:07:41.957Z,60.99
2022-08-02T05:08:41.953Z,57.74
2022-08-02T05:09:41.943Z,58.57
2022-08-02T05:10:41.959Z,59.79
2022-08-02T05:11:41.928Z,63.10
2022-08-02T05:12:41.928Z,60.44
2022-08-02T05:13:58.507Z,62.07
2022-08-02T05:14:42.899Z,57.65
2022-08-02T05:15:41.920Z,56.26
2022-08-02T05:16:41.886Z,60.82
2022-08-02T05:17:47.746Z,54.57
2022-08-02T05:18:42.864Z,52.58
2022-08-02T05:19:41.860Z,61.90
2022-08-02T05:20:41.879Z,59.88
2022-08-02T05:21:41.847Z,55.65
2022-08-02T05:22:41.841Z,59.37
2022-08-02T05:23:41.835Z,60.04
2022-08-02T05:24:41.825Z,59.07
2022-08-02T05:25:41.840Z,57.58
2022-08-02T05:26:41.807Z,61.36
2022-08-02T05:27:41.795Z,59.24
2022-08-02T05:28:41.789Z,57.78
2022-08-02T05:29:41.779Z,60.63
2022-08-02T05:30:42.801Z,61.82
2022-08-02T05:31:41.762Z,57.74
2022-08-02T05:32:41.755Z,51.78
2022-08-02T05:33:41.748Z,62.43
2022-08-02T05:34:41.738Z,60.58
2022-08-02T05:35:41.758Z,61.48
2022-08-02T05:36:42.219Z,63.02
2022-08-02T05:37:43.042Z,59.78
2022-08-02T05:38:41.720Z,61.96
2022-08-02T05:39:41.696Z,59.71
2022-08-02T05:40:54.551Z,61.06
2022-08-02T05:41:42.701Z,58.94
2022-08-02T05:42:41.678Z,57.25
2022-08-02T05:43:41.669Z,58.88
2022-08-02T05:44:41.667Z,55.90
2022-08-02T05:45:41.700Z,62.05
2022-08-02T05:46:41.646Z,61.44
2022-08-02T05:47:41.644Z,63.28
2022-08-02T05:48:41.631Z,60.95
2022-08-02T05:49:41.756Z,61.10
2022-08-02T05:50:41.610Z,58.69
2022-08-02T05:51:41.633Z,62.94
2022-08-02T05:52:41.606Z,62.74
2022-08-02T05:53:41.591Z,59.81
2022-08-02T05:54:41.589Z,61.35
2022-08-02T05:55:41.579Z,61.81
2022-08-02T05:56:41.614Z,57.21
2022-08-02T05:57:43.448Z,62.21
2022-08-02T05:58:41.560Z,58.71
2022-08-02T05:59:41.559Z,60.28
2022-08-02T06:00:41.552Z,57.51
2022-08-02T06:01:41.610Z,63.24
2022-08-02T06:02:41.534Z,54.55
2022-08-02T06:03:41.567Z,61.32
2022-08-02T06:04:41.540Z,63.10
2022-08-02T06:05:41.515Z,60.94
2022-08-02T06:06:41.982Z,58.65
2022-08-02T06:07:41.499Z,61.31
2022-08-02T06:08:44.556Z,63.18
2022-08-02T06:09:43.472Z,59.70
2022-08-02T06:10:41.473Z,62.32
2022-08-02T06:11:41.483Z,58.42
2022-08-02T06:12:42.444Z,62.11
2022-08-02T06:13:41.439Z,50.32
2022-08-02T06:14:41.430Z,57.11
2022-08-02T06:15:52.819Z,56.41
2022-08-02T06:16:42.645Z,59.63
2022-08-02T06:17:41.893Z,60.28
2022-08-02T06:18:41.402Z,60.32
2022-08-02T06:19:51.989Z,61.98
2022-08-02T06:20:42.385Z,61.69
2022-08-02T06:22:35.544Z,55.25
2022-08-02T06:22:42.672Z,61.90
2022-08-02T06:23:41.361Z,51.07
2022-08-02T06:24:42.351Z,63.39
2022-08-02T06:25:50.542Z,57.63
2022-08-02T06:26:42.353Z,60.66
2022-08-02T06:27:41.330Z,61.64
2022-08-02T06:28:41.320Z,61.23
2022-08-02T06:29:41.834Z,60.77
2022-08-02T06:30:41.301Z,57.31
2022-08-02T06:31:41.323Z,62.91
2022-08-02T06:32:41.287Z,51.19
2022-08-02T06:33:41.277Z,58.18
2022-08-02T06:34:41.270Z,61.52
2022-08-02T06:35:41.264Z,56.38
2022-08-02T06:36:41.285Z,59.20
2022-08-02T06:37:41.247Z,61.55
2022-08-02T06:38:41.238Z,60.32
2022-08-02T06:39:41.960Z,62.33
2022-08-02T06:40:41.219Z,60.77
2022-08-02T06:41:41.210Z,61.00
2022-08-02T06:42:41.227Z,60.71
2022-08-02T06:43:41.205Z,59.66
2022-08-02T06:44:53.007Z,58.43
2022-08-02T06:45:43.191Z,55.55
2022-08-02T06:47:11.065Z,58.80
2022-08-02T06:47:42.193Z,61.54
2022-08-02T06:48:41.164Z,55.88
2022-08-02T06:49:52.921Z,54.32
2022-08-02T06:50:42.221Z,58.73
2022-08-02T06:51:41.155Z,59.58
2022-08-02T06:52:41.149Z,59.52
2022-08-02T06:53:41.126Z,57.60
2022-08-02T06:54:41.109Z,62.95
2022-08-02T06:55:44.087Z,58.47
2022-08-02T06:56:41.100Z,58.76
2022-08-02T06:57:41.116Z,62.15
2022-08-02T06:58:41.086Z,60.64
2022-08-02T06:59:41.093Z,55.86
2022-08-02T07:00:41.063Z,57.24
2022-08-02T07:01:41.126Z,53.09
2022-08-02T07:02:41.069Z,58.86
2022-08-02T07:03:41.037Z,54.99
2022-08-02T07:04:41.034Z,54.96
2022-08-02T07:05:41.030Z,58.95
2022-08-02T07:06:41.022Z,57.37
2022-08-02T07:07:41.041Z,56.32
2022-08-02T07:08:41.015Z,59.24
2022-08-02T07:09:56.847Z,56.26
2022-08-02T07:10:41.986Z,55.53
2022-08-02T07:11:40.984Z,59.37
2022-08-02T07:12:41.003Z,59.16
2022-08-02T07:13:40.971Z,59.16
2022-08-02T07:14:40.965Z,54.62
2022-08-02T07:15:49.193Z,61.31
2022-08-02T07:16:41.947Z,56.58
2022-08-02T07:17:41.967Z,56.36
2022-08-02T07:18:40.956Z,58.29
2022-08-02T07:19:40.931Z,58.02
2022-08-02T07:20:40.969Z,59.00
2022-08-02T07:21:59.505Z,54.88
2022-08-02T07:22:41.941Z,57.92
2022-08-02T07:23:40.904Z,50.78
2022-08-02T07:24:40.899Z,58.55
2022-08-02T07:26:03.078Z,57.37
2022-08-02T07:27:08.560Z,59.79
2022-08-02T07:27:42.906Z,55.03
2022-08-02T07:28:40.876Z,57.15
2022-08-02T07:29:46.356Z,60.23
2022-08-02T07:30:41.857Z,52.96
2022-08-02T07:31:40.855Z,57.18
2022-08-02T07:32:40.937Z,56.89
2022-08-02T07:33:43.309Z,54.88
2022-08-02T07:34:41.841Z,53.04
2022-08-02T07:35:40.832Z,57.90
2022-08-02T07:36:40.815Z,54.58
2022-08-02T07:37:53.359Z,57.36
2022-08-02T07:38:41.805Z,60.50
2022-08-02T07:39:40.800Z,57.08
2022-08-02T07:40:40.792Z,56.46
2022-08-02T07:41:40.788Z,57.39
2022-08-02T07:42:40.802Z,52.36
2022-08-02T07:43:40.770Z,53.83
2022-08-02T07:44:40.773Z,57.99
2022-08-02T07:45:54.216Z,55.70
2022-08-02T07:46:41.753Z,53.93
2022-08-02T07:47:40.772Z,58.27
2022-08-02T07:48:40.746Z,54.91
2022-08-02T07:49:40.745Z,55.27
2022-08-02T07:50:40.730Z,56.34
2022-08-02T07:51:40.727Z,53.51
2022-08-02T07:52:40.762Z,57.33
2022-08-02T07:53:51.214Z,53.46
2022-08-02T07:54:41.703Z,57.43
2022-08-02T07:55:40.874Z,55.89
2022-08-02T07:56:41.694Z,53.89
2022-08-02T07:57:45.838Z,55.08
2022-08-02T07:58:42.685Z,54.75
2022-08-02T07:59:40.680Z,53.51
2022-08-02T08:00:40.684Z,55.62
2022-08-02T08:01:40.748Z,56.89
2022-08-02T08:02:41.694Z,50.76
2022-08-02T08:03:40.657Z,56.71
2022-08-02T08:04:40.654Z,58.00
2022-08-02T08:05:40.662Z,53.12
2022-08-02T08:06:40.641Z,54.92
2022-08-02T08:07:40.661Z,55.57
2022-08-02T08:08:40.641Z,55.57
2022-08-02T08:09:40.626Z,53.97
2022-08-02T08:10:40.627Z,55.42
2022-08-02T08:11:40.615Z,57.91
2022-08-02T08:12:40.633Z,53.90
2022-08-02T08:13:40.622Z,52.13
2022-08-02T08:14:40.603Z,53.95
2022-08-02T08:15:40.594Z,61.05
2022-08-02T08:16:40.589Z,52.46
2022-08-02T08:17:40.602Z,55.22
2022-08-02T08:18:40.578Z,55.96
2022-08-02T08:19:51.104Z,52.52
2022-08-02T08:20:41.570Z,51.28
2022-08-02T08:21:40.552Z,53.36
2022-08-02T08:22:40.547Z,52.66
2022-08-02T08:23:40.569Z,52.43
2022-08-02T08:24:40.533Z,50.27
2022-08-02T08:25:41.405Z,51.41
2022-08-02T08:26:40.527Z,53.76
2022-08-02T08:27:40.518Z,56.20
2022-08-02T08:28:40.545Z,57.36
2022-08-02T08:29:40.515Z,51.95
2022-08-02T08:30:40.502Z,56.74
2022-08-02T08:31:40.492Z,57.72
2022-08-02T08:32:40.492Z,58.23
2022-08-02T08:33:40.526Z,54.77
2022-08-02T08:34:40.507Z,57.39
2022-08-02T08:35:40.476Z,60.37
2022-08-02T08:36:40.470Z,56.14
2022-08-02T08:37:40.457Z,55.24
2022-08-02T08:38:41.479Z,54.96
2022-08-02T08:39:56.245Z,56.64
2022-08-02T08:40:41.446Z,56.51
2022-08-02T08:41:40.436Z,55.51
2022-08-02T08:42:40.462Z,55.80
2022-08-02T08:43:40.465Z,56.50
2022-08-02T08:44:40.437Z,54.22
2022-08-02T08:45:40.429Z,53.11
2022-08-02T08:46:40.445Z,55.31
2022-08-02T08:47:40.421Z,55.33
2022-08-02T08:48:40.433Z,56.11
2022-08-02T08:49:40.408Z,58.48
2022-08-02T08:50:41.396Z,58.90
2022-08-02T08:51:40.396Z,53.77
2022-08-02T08:52:40.391Z,52.12
2022-08-02T08:53:40.400Z,52.27
2022-08-02T08:54:40.389Z,55.53
2022-08-02T08:55:40.366Z,55.32
2022-08-02T08:56:40.357Z,53.42
2022-08-02T08:57:40.357Z,51.98
2022-08-02T08:58:40.378Z,52.81
2022-08-02T08:59:40.343Z,58.54
2022-08-02T09:00:40.339Z,55.57
2022-08-02T09:01:50.493Z,57.29
2022-08-02T09:02:41.328Z,49.79
2022-08-02T09:03:40.367Z,52.82
2022-08-02T09:04:40.318Z,54.46
2022-08-02T09:05:40.309Z,53.96
2022-08-02T09:06:40.305Z,52.17
2022-08-02T09:07:40.302Z,53.03
2022-08-02T09:08:40.320Z,49.99
2022-08-02T09:09:40.286Z,51.74
2022-08-02T09:10:40.277Z,52.42
2022-08-02T09:11:40.270Z,52.55
2022-08-02T09:12:40.262Z,49.95
2022-08-02T09:13:45.700Z,53.36
2022-08-02T09:14:41.248Z,47.31
2022-08-02T09:15:40.243Z,48.75
2022-08-02T09:16:40.236Z,50.43
2022-08-02T09:17:40.229Z,47.95
2022-08-02T09:18:40.248Z,48.93
2022-08-02T09:19:46.153Z,52.42
2022-08-02T09:20:41.208Z,49.74
2022-08-02T09:21:40.199Z,50.55
2022-08-02T09:22:40.203Z,46.88
2022-08-02T09:23:40.216Z,47.84
2022-08-02T09:24:40.188Z,49.69
2022-08-02T09:25:40.180Z,48.21
2022-08-02T09:26:41.174Z,49.24
2022-08-02T09:27:40.171Z,50.00
2022-08-02T09:28:40.187Z,47.03
2022-08-02T09:30:05.952Z,51.17
2022-08-02T09:30:42.150Z,48.24
2022-08-02T09:31:49.411Z,50.41
2022-08-02T09:32:42.149Z,47.50
2022-08-02T09:33:40.155Z,51.49
2022-08-02T09:34:40.124Z,49.62
2022-08-02T09:36:06.548Z,55.05
2022-08-02T09:36:41.111Z,47.93
2022-08-02T09:37:40.116Z,53.24
2022-08-02T09:38:40.131Z,52.06
2022-08-02T09:39:40.107Z,56.47
2022-08-02T09:40:41.083Z,49.34
2022-08-02T09:41:40.084Z,48.55
2022-08-02T09:42:40.071Z,49.27
2022-08-02T09:43:51.976Z,48.96
2022-08-02T09:44:41.059Z,46.83
2022-08-02T09:45:40.055Z,47.17
2022-08-02T09:46:40.050Z,46.96
2022-08-02T09:47:40.048Z,47.47
2022-08-02T09:48:40.065Z,47.18
2022-08-02T09:49:40.115Z,46.60
2022-08-02T09:50:40.021Z,48.57
2022-08-02T09:51:40.015Z,47.56
2022-08-02T09:52:43.655Z,49.25
2022-08-02T09:53:40.007Z,47.70
2022-08-02T09:54:40.024Z,56.44
2022-08-02T09:55:39.990Z,46.14
2022-08-02T09:56:39.977Z,49.71
2022-08-02T09:57:39.972Z,50.13
2022-08-02T09:58:39.969Z,52.20
2022-08-02T09:59:39.986Z,51.17
2022-08-02T10:00:52.574Z,44.80
2022-08-02T10:01:46.373Z,51.94
2022-08-02T10:02:41.006Z,46.21
2022-08-02T10:03:39.995Z,48.89
2022-08-02T10:04:52.366Z,49.92
2022-08-02T10:05:49.556Z,51.01
2022-08-02T10:06:40.915Z,45.05
2022-08-02T10:07:39.909Z,47.95
2022-08-02T10:08:39.904Z,51.41
2022-08-02T10:09:43.259Z,48.96
2022-08-02T10:10:41.885Z,52.81
2022-08-02T10:11:39.884Z,50.68
2022-08-02T10:12:39.881Z,53.41
2022-08-02T10:13:39.862Z,50.31
2022-08-02T10:14:39.888Z,49.27
2022-08-02T10:15:39.853Z,50.55
2022-08-02T10:16:40.862Z,48.02
2022-08-02T10:17:39.832Z,49.95
2022-08-02T10:18:41.338Z,46.03
2022-08-02T10:20:03.298Z,47.16
2022-08-02T10:20:40.813Z,48.30
2022-08-02T10:21:42.718Z,45.66
2022-08-02T10:22:40.797Z,51.18
2022-08-02T10:23:39.789Z,48.12
2022-08-02T10:24:39.809Z,50.06
2022-08-02T10:25:40.772Z,49.96
2022-08-02T10:26:39.770Z,50.34
2022-08-02T10:28:03.750Z,47.04
2022-08-02T10:28:41.755Z,51.83
2022-08-02T10:29:54.004Z,48.78
2022-08-02T10:30:40.765Z,49.36
2022-08-02T10:31:39.732Z,52.63
2022-08-02T10:32:39.730Z,55.23
2022-08-02T10:33:39.722Z,56.82
2022-08-02T10:34:39.736Z,52.08
2022-08-02T10:35:39.709Z,55.53
2022-08-02T10:36:39.705Z,50.69
2022-08-02T10:37:39.691Z,52.70
2022-08-02T10:38:39.683Z,49.85
2022-08-02T10:39:39.702Z,56.11
2022-08-02T10:40:39.674Z,51.54
2022-08-02T10:41:39.663Z,51.29
2022-08-02T10:42:39.662Z,48.21
2022-08-02T10:43:39.650Z,51.97
2022-08-02T10:44:39.667Z,49.45
2022-08-02T10:45:39.634Z,48.00
2022-08-02T10:46:39.621Z,49.22
2022-08-02T10:47:39.646Z,46.73
2022-08-02T10:48:39.676Z,48.97
2022-08-02T10:49:40.555Z,52.99
2022-08-02T10:50:40.596Z,47.35
2022-08-02T10:51:39.594Z,47.80
2022-08-02T10:52:39.584Z,47.89
2022-08-02T10:53:39.578Z,47.69
2022-08-02T10:54:39.594Z,50.15
2022-08-02T10:55:39.563Z,49.19
2022-08-02T10:56:39.556Z,50.46
2022-08-02T10:57:39.548Z,51.38
2022-08-02T10:58:39.541Z,53.26
2022-08-02T10:59:39.555Z,58.81
2022-08-02T11:00:39.593Z,50.29
2022-08-02T11:01:40.295Z,50.36
2022-08-02T11:02:39.515Z,45.57
2022-08-02T11:03:40.302Z,50.25
2022-08-02T11:04:39.522Z,44.17
2022-08-02T11:05:42.873Z,49.29
2022-08-02T11:06:39.478Z,49.10
2022-08-02T11:07:39.479Z,51.83
2022-08-02T11:08:39.467Z,51.14
2022-08-02T11:09:39.484Z,47.98
2022-08-02T11:10:39.483Z,47.52
2022-08-02T11:11:53.741Z,53.20
2022-08-02T11:12:40.432Z,50.75
2022-08-02T11:13:39.429Z,50.61
2022-08-02T11:14:39.447Z,44.93
2022-08-02T11:15:39.456Z,55.25
2022-08-02T11:16:39.408Z,54.39
2022-08-02T11:17:41.155Z,55.22
2022-08-02T11:18:39.393Z,52.13
2022-08-02T11:19:39.410Z,50.40
2022-08-02T11:20:39.377Z,54.60
2022-08-02T11:21:39.366Z,48.96
2022-08-02T11:22:39.372Z,47.37
2022-08-02T11:23:44.836Z,53.05
2022-08-02T11:24:40.374Z,51.52
2022-08-02T11:26:02.722Z,51.62
2022-08-02T11:26:41.338Z,50.01
2022-08-02T11:27:39.341Z,51.07
2022-08-02T11:28:39.325Z,49.59
2022-08-02T11:29:39.340Z,49.16
2022-08-02T11:30:39.306Z,51.28
2022-08-02T11:31:39.303Z,52.46
2022-08-02T11:32:39.288Z,53.02
2022-08-02T11:33:39.284Z,51.40
2022-08-02T11:34:39.301Z,57.77
2022-08-02T11:35:39.263Z,57.17
2022-08-02T11:36:39.259Z,51.16
2022-08-02T11:37:39.256Z,50.86
2022-08-02T11:38:39.251Z,56.53
2022-08-02T11:39:39.272Z,54.51
2022-08-02T11:40:39.236Z,55.92
2022-08-02T11:41:47.427Z,59.04
2022-08-02T11:42:40.217Z,54.54
2022-08-02T11:43:39.231Z,57.98
2022-08-02T11:44:39.225Z,54.14
2022-08-02T11:45:39.192Z,50.12
2022-08-02T11:46:39.186Z,55.25
2022-08-02T11:47:39.183Z,51.17
2022-08-02T11:48:39.176Z,51.40
2022-08-02T11:49:39.259Z,56.49
2022-08-02T11:50:39.160Z,57.32
2022-08-02T11:51:39.152Z,67.92
2022-08-02T11:52:39.142Z,60.91
2022-08-02T11:53:39.136Z,62.78
2022-08-02T11:54:39.159Z,57.38
2022-08-02T11:55:39.115Z,59.98
2022-08-02T11:56:39.113Z,53.45
2022-08-02T11:58:03.174Z,53.55
2022-08-02T11:58:41.881Z,52.94
2022-08-02T11:59:39.089Z,56.84
2022-08-02T12:00:39.104Z,50.59
2022-08-02T12:01:45.229Z,57.55
2022-08-02T12:02:40.064Z,61.81
2022-08-02T12:03:39.286Z,59.29
2022-08-02T12:04:39.052Z,57.08
2022-08-02T12:06:04.418Z,54.81
2022-08-02T12:06:41.041Z,56.99
2022-08-02T12:07:45.681Z,54.07
2022-08-02T12:08:40.021Z,46.04
2022-08-02T12:09:41.230Z,49.46
2022-08-02T12:10:40.048Z,51.84
2022-08-02T12:11:39.371Z,54.09
2022-08-02T12:12:38.994Z,52.63
2022-08-02T12:13:38.981Z,52.36
2022-08-02T12:14:38.978Z,54.52
2022-08-02T12:15:38.994Z,56.36
2022-08-02T12:16:38.978Z,56.36
2022-08-02T12:17:38.951Z,55.58
2022-08-02T12:18:39.943Z,54.92
2022-08-02T12:19:38.937Z,58.81
2022-08-02T12:20:38.957Z,49.30
2022-08-02T12:21:38.921Z,49.36
2022-08-02T12:22:41.809Z,54.11
2022-08-02T12:23:39.905Z,50.68
2022-08-02T12:24:39.895Z,54.95
2022-08-02T12:25:38.914Z,56.23
2022-08-02T12:26:38.904Z,58.15
2022-08-02T12:27:38.879Z,57.85
2022-08-02T12:28:38.868Z,58.06
2022-08-02T12:29:59.216Z,58.68
2022-08-02T12:30:39.879Z,54.89
2022-08-02T12:31:38.845Z,53.77
2022-08-02T12:32:39.843Z,49.71
2022-08-02T12:33:39.493Z,50.13
2022-08-02T12:34:39.818Z,45.95
2022-08-02T12:35:38.833Z,51.01
2022-08-02T12:36:38.808Z,45.67
2022-08-02T12:37:38.801Z,51.24
2022-08-02T12:38:38.792Z,48.19
2022-08-02T12:39:38.782Z,54.67
2022-08-02T12:40:38.800Z,54.75
2022-08-02T12:41:38.776Z,51.85
2022-08-02T12:42:39.766Z,51.92
2022-08-02T12:43:38.763Z,49.39
2022-08-02T12:44:38.746Z,55.44
2022-08-02T12:45:42.029Z,53.61
2022-08-02T12:46:42.222Z,57.06
2022-08-02T12:47:39.727Z,55.52
2022-08-02T12:48:48.133Z,60.17
2022-08-02T12:49:39.755Z,60.77
2022-08-02T12:50:38.730Z,55.77
2022-08-02T12:51:50.808Z,56.93
2022-08-02T12:52:39.683Z,58.51